Mantorville, Minnesota
Current Conditions -  °F | °C
As of 3:53 AM on Saturday 29 Nov 2014 (Local Time) from KTOB Reporting Station
Haze Haze  
Wind Chill: 16°   Ceiling: Unl
Heat Index: 25°   Visibility: 4mi
Dew Point: 25°   Wind: 8mph
Humidity: 100%   Direction: 150°SSE
Pressure: 29.55"   Gusts: NA
Location:  44.07°N, 92.76°W
Report Text: KTOB 290953Z AUTO 15007KT 4SM BR SCT090 M04/M04 A2955 RMK AO2
Loading
Personal Weather Stations






























Interactive Weather Map New forecast layout! Learn more

10-Day Weather Forecast

Advertisements
Track Severe Weather on mobile